createdAt,value
2022-10-01T00:00:51.074Z,0.82
2022-10-01T00:06:06.708Z,0.88
2022-10-01T00:11:27.095Z,0.82
2022-10-01T00:16:31.016Z,0.90
2022-10-01T00:21:33.693Z,0.50
2022-10-01T00:26:37.868Z,0.98
2022-10-01T00:31:40.435Z,1.08
2022-10-01T00:36:42.624Z,0.80
2022-10-01T00:41:44.665Z,1.08
2022-10-01T00:46:46.889Z,0.88
2022-10-01T00:51:55.639Z,0.73
2022-10-01T00:56:59.871Z,0.50
2022-10-01T01:02:02.158Z,0.75
2022-10-01T01:07:05.144Z,0.88
2022-10-01T01:12:26.953Z,0.80
2022-10-01T01:17:51.929Z,0.68
2022-10-01T01:23:14.940Z,0.47
2022-10-01T01:28:23.102Z,0.93
2022-10-01T01:33:28.154Z,0.75
2022-10-01T01:38:36.253Z,0.70
2022-10-01T01:43:43.469Z,0.80
2022-10-01T01:48:49.540Z,0.95
2022-10-01T01:53:52.097Z,0.63
2022-10-01T01:58:54.297Z,0.40
2022-10-01T02:03:56.978Z,0.55
2022-10-01T02:09:08.933Z,0.50
2022-10-01T02:14:28.881Z,0.60
2022-10-01T02:19:43.457Z,0.50
2022-10-01T02:24:58.290Z,0.47
2022-10-01T02:30:08.038Z,0.40
2022-10-01T02:35:16.841Z,0.50
2022-10-01T02:40:26.421Z,0.57
2022-10-01T02:45:32.650Z,0.38
2022-10-01T02:50:47.119Z,0.52
2022-10-01T02:55:51.689Z,0.40
2022-10-01T03:00:53.862Z,0.50
2022-10-01T03:05:55.991Z,0.60
2022-10-01T03:10:57.970Z,0.63
2022-10-01T03:15:59.963Z,0.30
2022-10-01T03:21:01.941Z,0.45
2022-10-01T03:26:03.908Z,0.30
2022-10-01T03:31:11.141Z,0.20
2022-10-01T03:36:13.173Z,0.45
2022-10-01T03:41:15.184Z,0.40
2022-10-01T03:46:17.951Z,0.40
2022-10-01T03:51:21.168Z,0.32
2022-10-01T03:56:23.521Z,0.47
2022-10-01T04:01:26.497Z,0.40
2022-10-01T04:06:28.525Z,0.60
2022-10-01T04:11:30.746Z,0.30
2022-10-01T04:16:35.060Z,0.45
2022-10-01T04:21:37.633Z,0.68
2022-10-01T04:26:39.838Z,1.10
2022-10-01T04:31:42.004Z,0.50
2022-10-01T04:36:44.043Z,1.23
2022-10-01T04:41:46.245Z,1.20
2022-10-01T04:46:48.246Z,1.23
2022-10-01T04:51:50.324Z,0.80
2022-10-01T04:56:53.027Z,1.00
2022-10-01T05:01:55.258Z,0.60
2022-10-01T05:06:57.357Z,0.80
2022-10-01T05:11:59.356Z,1.00
2022-10-01T05:17:01.532Z,0.93
2022-10-01T05:22:04.716Z,0.75
2022-10-01T05:27:12.403Z,0.70
2022-10-01T05:32:15.008Z,1.00
2022-10-01T05:37:18.632Z,0.63
2022-10-01T05:42:20.649Z,0.88
2022-10-01T05:47:23.132Z,0.68
2022-10-01T05:52:25.156Z,0.90
2022-10-01T05:57:27.186Z,0.63
2022-10-01T06:02:29.288Z,0.60
2022-10-01T06:07:32.042Z,0.88
2022-10-01T06:12:34.490Z,0.60
2022-10-01T06:17:36.583Z,0.63
2022-10-01T06:22:39.354Z,0.77
2022-10-01T06:27:41.802Z,0.70
2022-10-01T06:32:43.823Z,0.50
2022-10-01T06:37:45.796Z,0.57
2022-10-01T06:42:51.795Z,0.77
2022-10-01T06:47:59.901Z,0.50
2022-10-01T06:53:03.017Z,0.68
2022-10-01T06:58:07.941Z,0.50
2022-10-01T07:03:14.917Z,0.68
2022-10-01T07:08:18.052Z,0.80
2022-10-01T07:13:21.113Z,0.47
2022-10-01T07:18:23.515Z,0.50
2022-10-01T07:23:25.684Z,0.60
2022-10-01T07:28:28.449Z,0.40
2022-10-01T07:33:30.725Z,0.60
2022-10-01T07:38:36.180Z,0.50
2022-10-01T07:43:39.530Z,0.30
2022-10-01T07:53:44.413Z,0.20
2022-10-01T07:58:46.430Z,0.40
2022-10-01T08:03:50.011Z,0.45
2022-10-01T08:08:52.181Z,0.70
2022-10-01T08:13:57.441Z,0.30
2022-10-01T08:18:59.779Z,0.30
2022-10-01T08:24:05.557Z,0.50
2022-10-01T08:29:07.597Z,0.45
2022-10-01T08:34:09.528Z,0.30
2022-10-01T08:39:15.029Z,0.38
2022-10-01T08:44:21.963Z,0.47
2022-10-01T08:49:39.326Z,0.65
2022-10-01T08:54:47.305Z,0.40
2022-10-01T08:59:54.054Z,0.55
2022-10-01T09:05:25.016Z,0.40
2022-10-01T09:10:49.839Z,0.60
2022-10-01T09:16:19.315Z,0.40
2022-10-01T09:21:51.816Z,0.35
2022-10-01T09:26:53.793Z,0.80
2022-10-01T09:31:57.370Z,0.80
2022-10-01T09:37:08.477Z,0.68
2022-10-01T09:42:10.540Z,0.63
2022-10-01T09:47:20.789Z,0.82
2022-10-01T09:52:28.369Z,0.63
2022-10-01T09:57:45.025Z,0.68
2022-10-01T10:02:51.851Z,0.70
2022-10-01T10:07:59.004Z,1.00
2022-10-01T10:13:10.922Z,0.68
2022-10-01T10:18:22.961Z,0.77
2022-10-01T10:23:32.151Z,0.60
2022-10-01T10:28:46.184Z,0.90
2022-10-01T10:34:13.653Z,0.52
2022-10-01T10:44:24.541Z,0.98
2022-10-01T10:49:30.324Z,1.17
2022-10-01T10:54:37.715Z,0.75
2022-10-01T10:59:39.784Z,0.88
2022-10-01T11:04:47.214Z,0.80
2022-10-01T11:09:54.922Z,1.10
2022-10-01T11:15:09.508Z,0.82
2022-10-01T11:20:34.397Z,0.80
2022-10-01T11:26:13.764Z,0.75
2022-10-01T11:31:31.868Z,0.90
2022-10-01T11:36:52.078Z,0.90
2022-10-01T11:42:06.884Z,0.70
2022-10-01T11:47:23.472Z,1.00
2022-10-01T11:52:43.485Z,1.10
2022-10-01T11:58:05.073Z,0.70
2022-10-01T12:03:17.156Z,0.70
2022-10-01T12:08:27.888Z,0.98
2022-10-01T12:13:44.656Z,0.82
2022-10-01T12:19:14.412Z,0.70
2022-10-01T12:24:29.122Z,0.80
2022-10-01T12:29:52.374Z,0.93
2022-10-01T12:35:16.503Z,0.60
2022-10-01T12:40:31.100Z,0.60
2022-10-01T12:45:53.433Z,0.85
2022-10-01T12:51:10.577Z,0.73
2022-10-01T12:56:33.695Z,0.60
2022-10-01T13:01:56.214Z,0.60
2022-10-01T13:07:21.545Z,0.80
2022-10-01T13:12:42.185Z,0.60
2022-10-01T13:17:57.125Z,1.10
2022-10-01T13:23:09.315Z,0.82
2022-10-01T13:28:20.729Z,0.65
2022-10-01T13:33:29.161Z,0.75
2022-10-01T13:38:46.377Z,0.70
2022-10-01T13:44:26.826Z,0.80
2022-10-01T13:49:32.939Z,0.70
2022-10-01T13:54:57.087Z,0.70
2022-10-01T14:00:23.794Z,0.60
2022-10-01T14:05:29.707Z,0.50
2022-10-01T14:10:58.312Z,0.60
2022-10-01T14:16:00.713Z,0.40
2022-10-01T14:21:35.248Z,0.50
2022-10-01T14:27:11.541Z,0.47
2022-10-01T14:32:31.810Z,0.63
2022-10-01T14:37:39.217Z,0.50
2022-10-01T14:42:41.210Z,0.90
2022-10-01T14:47:43.297Z,0.40
2022-10-01T14:52:51.222Z,0.52
2022-10-01T14:57:55.538Z,0.50
2022-10-01T15:03:18.684Z,0.40
2022-10-01T15:08:35.931Z,0.65
2022-10-01T15:13:43.204Z,0.60
2022-10-01T15:19:04.012Z,0.47
2022-10-01T15:24:13.873Z,0.55
2022-10-01T15:29:17.409Z,0.30
2022-10-01T15:34:22.913Z,0.40
2022-10-01T15:39:39.928Z,0.50
2022-10-01T15:44:46.614Z,0.40
2022-10-01T15:50:09.745Z,0.30
2022-10-01T15:55:17.657Z,0.40
2022-10-01T16:00:32.409Z,0.40
2022-10-01T16:05:46.320Z,0.32
2022-10-01T16:11:08.648Z,0.73
2022-10-01T16:16:13.884Z,0.35
2022-10-01T16:21:15.930Z,0.40
2022-10-01T16:26:38.169Z,0.20
2022-10-01T16:31:44.854Z,0.40
2022-10-01T16:36:47.344Z,0.47
2022-10-01T16:42:06.217Z,0.40
2022-10-01T16:47:12.529Z,0.40
2022-10-01T16:52:16.779Z,0.50
2022-10-01T16:57:18.956Z,0.20
2022-10-01T17:02:21.028Z,0.60
2022-10-01T17:07:22.989Z,0.45
2022-10-01T17:12:27.137Z,0.43
2022-10-01T17:17:29.129Z,0.50
2022-10-01T17:22:31.795Z,0.50
2022-10-01T17:27:33.804Z,0.38
2022-10-01T17:32:37.576Z,0.38
2022-10-01T17:37:40.408Z,0.40
2022-10-01T17:42:42.454Z,0.32
2022-10-01T17:47:48.710Z,0.25
2022-10-01T17:52:50.736Z,0.20
2022-10-01T17:57:52.879Z,0.50
2022-10-01T18:02:55.667Z,0.20
2022-10-01T18:07:57.733Z,0.40
2022-10-01T18:13:00.284Z,0.22
2022-10-01T18:19:45.779Z,0.30
2022-10-01T18:23:24.762Z,0.20
2022-10-01T18:28:27.349Z,0.50
2022-10-01T18:33:29.959Z,0.50
2022-10-01T18:38:37.178Z,0.45
2022-10-01T18:43:41.004Z,0.20
2022-10-01T18:48:45.690Z,0.40
2022-10-01T18:53:58.536Z,0.20
2022-10-01T18:59:12.618Z,0.30
2022-10-01T19:04:14.801Z,0.30
2022-10-01T19:09:35.021Z,0.30
2022-10-01T19:15:00.876Z,0.20
2022-10-01T19:20:31.383Z,0.30
2022-10-01T19:25:45.651Z,0.20
2022-10-01T19:30:58.160Z,0.20
2022-10-01T19:36:01.661Z,0.30
2022-10-01T19:41:20.701Z,0.20
2022-10-01T19:46:28.996Z,0.25
2022-10-01T19:51:39.681Z,0.35
2022-10-01T19:56:43.205Z,0.30
2022-10-01T20:02:03.560Z,0.22
2022-10-01T20:07:11.642Z,0.20
2022-10-01T20:12:23.015Z,0.30
2022-10-01T20:17:33.261Z,0.20
2022-10-01T20:22:53.077Z,0.17
2022-10-01T20:28:06.633Z,0.20
2022-10-01T20:33:32.588Z,0.30
2022-10-01T20:38:42.005Z,0.15
2022-10-01T20:49:01.841Z,0.20
2022-10-01T20:54:11.432Z,0.20
2022-10-01T20:59:30.010Z,0.30
2022-10-01T21:04:39.805Z,0.20
2022-10-01T21:09:46.260Z,0.10
2022-10-01T21:14:55.805Z,0.22
2022-10-01T21:20:16.399Z,0.20
2022-10-01T21:25:30.388Z,0.20
2022-10-01T21:31:13.844Z,0.20
2022-10-01T21:36:21.203Z,0.13
2022-10-01T21:41:28.845Z,0.30
2022-10-01T21:47:06.464Z,0.30
2022-10-01T21:52:46.922Z,0.10
2022-10-01T21:58:01.809Z,0.10
2022-10-01T22:03:07.374Z,0.20
2022-10-01T22:08:44.989Z,0.10
2022-10-01T22:13:59.269Z,0.13
2022-10-01T22:19:06.923Z,0.20
2022-10-01T22:24:13.839Z,0.10
2022-10-01T22:29:20.524Z,0.10
2022-10-01T22:34:28.175Z,0.10
2022-10-01T22:39:37.570Z,0.10
2022-10-01T22:50:00.221Z,0.10
2022-10-01T22:55:25.478Z,0.20
2022-10-01T23:00:28.383Z,0.13
2022-10-01T23:05:39.368Z,0.10
2022-10-01T23:10:58.006Z,0.20
2022-10-01T23:16:00.356Z,0.10
2022-10-01T23:21:05.350Z,0.17
2022-10-01T23:26:34.751Z,0.10
2022-10-01T23:31:48.484Z,0.13
2022-10-01T23:37:09.153Z,0.17
2022-10-01T23:42:32.372Z,0.22
2022-10-01T23:48:06.230Z,0.20
2022-10-01T23:53:17.451Z,0.10
2022-10-01T23:58:22.910Z,0.10
